Time,TemperatureF,DewpointF,PressureIn,WindDirection,WindDirectionDegrees,WindSpeedMPH,WindSpeedGustMPH,Humidity,HourlyPrecipIn,Conditions,Clouds,dailyrainin,SolarRadiationWatts/m^2,SoftwareType,DateUTC
2013-01-15 00:02:00,-2.0,-12.0,-100.00,East,85,3.0,4.0,60,0.00,,,0.00,0.000000,,2013-01-15 07:02:00,
2013-01-15 00:12:00,-2.0,-12.0,-100.00,East,85,3.0,4.0,60,0.00,,,0.00,0.000000,,2013-01-15 07:12:00,
2013-01-15 00:22:00,-2.0,-12.0,-100.00,East,85,3.0,4.0,60,0.00,,,0.00,0.000000,,2013-01-15 07:22:00,
2013-01-15 00:32:00,-2.0,-12.0,-100.00,East,85,3.0,4.0,60,0.00,,,0.00,0.000000,,2013-01-15 07:32:00,
2013-01-15 00:52:00,-3.0,-13.0,-100.00,NE,55,2.0,7.0,61,0.00,,,0.00,0.000000,,2013-01-15 07:52:00,
2013-01-15 01:02:00,-3.0,-13.0,-100.00,NE,55,2.0,7.0,61,0.00,,,0.00,0.000000,,2013-01-15 08:02:00,
2013-01-15 01:12:00,-3.0,-13.0,-100.00,NE,55,2.0,7.0,61,0.00,,,0.00,0.000000,,2013-01-15 08:12:00,
2013-01-15 01:22:00,-3.0,-13.0,-100.00,NE,55,2.0,7.0,61,0.00,,,0.00,0.000000,,2013-01-15 08:22:00,
2013-01-15 01:32:00,-3.0,-13.0,-100.00,NE,55,2.0,7.0,61,0.00,,,0.00,0.000000,,2013-01-15 08:32:00,
2013-01-15 01:53:00,-3.0,-13.0,-100.00,NE,53,8.0,9.0,60,0.00,,,0.00,0.000000,,2013-01-15 08:53:00,
2013-01-15 02:02:00,-3.0,-13.0,-100.00,NE,53,8.0,9.0,60,0.00,,,0.00,0.000000,,2013-01-15 09:02:00,
2013-01-15 02:12:00,-3.0,-13.0,-100.00,NE,53,8.0,9.0,60,0.00,,,0.00,0.000000,,2013-01-15 09:12:00,
2013-01-15 02:22:00,-3.0,-13.0,-100.00,NE,53,8.0,9.0,60,0.00,,,0.00,0.000000,,2013-01-15 09:22:00,
2013-01-15 02:33:00,-3.0,-13.0,-100.00,NE,53,8.0,9.0,60,0.00,,,0.00,0.000000,,2013-01-15 09:33:00,
2013-01-15 02:52:00,-4.0,-14.0,-100.00,NE,51,9.0,10.0,62,0.00,,,0.00,0.000000,,2013-01-15 09:52:00,
2013-01-15 03:02:00,-4.0,-14.0,-100.00,NE,51,9.0,10.0,62,0.00,,,0.00,0.000000,,2013-01-15 10:02:00,
2013-01-15 03:11:00,-4.0,-14.0,-100.00,NE,51,9.0,10.0,62,0.00,,,0.00,0.000000,,2013-01-15 10:11:00,
2013-01-15 03:22:00,-4.0,-14.0,-100.00,NE,51,9.0,10.0,62,0.00,,,0.00,0.000000,,2013-01-15 10:22:00,
2013-01-15 03:32:00,-4.0,-14.0,-100.00,NE,51,9.0,10.0,62,0.00,,,0.00,0.000000,,2013-01-15 10:32:00,
2013-01-15 03:52:00,-5.0,-15.0,-100.00,ENE,73,6.0,11.0,62,0.00,,,0.00,0.000000,,2013-01-15 10:52:00,
2013-01-15 04:02:00,-5.0,-15.0,-100.00,ENE,73,6.0,11.0,62,0.00,,,0.00,0.000000,,2013-01-15 11:02:00,
2013-01-15 04:12:00,-5.0,-15.0,-100.00,ENE,73,6.0,11.0,62,0.00,,,0.00,0.000000,,2013-01-15 11:12:00,
2013-01-15 04:22:00,-5.0,-15.0,-100.00,ENE,73,6.0,11.0,62,0.00,,,0.00,0.000000,,2013-01-15 11:22:00,
2013-01-15 04:32:00,-5.0,-15.0,-100.00,ENE,73,6.0,11.0,62,0.00,,,0.00,0.000000,,2013-01-15 11:32:00,
2013-01-15 04:53:00,-4.0,-14.0,-100.00,ENE,76,6.0,8.0,61,0.00,,,0.00,0.000000,,2013-01-15 11:53:00,
2013-01-15 05:02:00,-4.0,-14.0,-100.00,ENE,76,6.0,8.0,61,0.00,,,0.00,0.000000,,2013-01-15 12:02:00,
2013-01-15 05:12:00,-4.0,-14.0,-100.00,ENE,76,6.0,8.0,61,0.00,,,0.00,0.000000,,2013-01-15 12:12:00,
2013-01-15 05:22:00,-4.0,-14.0,-100.00,ENE,76,6.0,8.0,61,0.00,,,0.00,0.000000,,2013-01-15 12:22:00,
2013-01-15 05:32:00,-4.0,-14.0,-100.00,ENE,76,6.0,8.0,61,0.00,,,0.00,0.000000,,2013-01-15 12:32:00,
2013-01-15 05:53:00,-5.0,-15.0,-100.00,ENE,65,8.0,11.0,61,0.00,,,0.00,0.000000,,2013-01-15 12:53:00,
2013-01-15 06:03:00,-5.0,-15.0,-100.00,ENE,65,8.0,11.0,61,0.00,,,0.00,0.000000,,2013-01-15 13:03:00,
2013-01-15 06:12:00,-5.0,-15.0,-100.00,ENE,65,8.0,11.0,61,0.00,,,0.00,0.000000,,2013-01-15 13:12:00,
2013-01-15 06:23:00,-5.0,-15.0,-100.00,ENE,65,8.0,11.0,61,0.00,,,0.00,0.000000,,2013-01-15 13:23:00,
2013-01-15 06:32:00,-5.0,-15.0,-100.00,ENE,65,8.0,11.0,61,0.00,,,0.00,0.000000,,2013-01-15 13:32:00,
2013-01-15 06:53:00,-6.0,-15.0,-100.00,ENE,58,7.0,13.0,64,0.00,,,0.00,0.000000,,2013-01-15 13:53:00,
2013-01-15 07:02:00,-6.0,-15.0,-100.00,ENE,58,7.0,13.0,64,0.00,,,0.00,0.000000,,2013-01-15 14:02:00,
2013-01-15 07:12:00,-6.0,-15.0,-100.00,ENE,58,7.0,13.0,64,0.00,,,0.00,0.000000,,2013-01-15 14:12:00,
2013-01-15 07:23:00,-6.0,-15.0,-100.00,ENE,58,7.0,13.0,64,0.00,,,0.00,0.000000,,2013-01-15 14:23:00,
2013-01-15 07:32:00,-6.0,-15.0,-100.00,ENE,58,7.0,13.0,64,0.00,,,0.00,0.000000,,2013-01-15 14:32:00,
2013-01-15 07:53:00,-6.0,-16.0,-100.00,ENE,57,9.0,11.0,62,0.00,,,0.00,1.000000,,2013-01-15 14:53:00,
2013-01-15 08:03:00,-6.0,-16.0,-100.00,ENE,57,9.0,11.0,62,0.00,,,0.00,1.000000,,2013-01-15 15:03:00,
2013-01-15 08:12:00,-6.0,-16.0,-100.00,ENE,57,9.0,11.0,62,0.00,,,0.00,1.000000,,2013-01-15 15:12:00,
2013-01-15 08:23:00,-6.0,-16.0,-100.00,ENE,57,9.0,11.0,62,0.00,,,0.00,1.000000,,2013-01-15 15:23:00,
2013-01-15 08:32:00,-6.0,-16.0,-100.00,ENE,57,9.0,11.0,62,0.00,,,0.00,1.000000,,2013-01-15 15:32:00,
2013-01-15 08:53:00,-5.0,-14.0,-100.00,NE,56,8.0,12.0,64,0.00,,,-99.99,25.000000,,2013-01-15 15:53:00,
2013-01-15 09:02:00,-5.0,-14.0,-100.00,NE,56,8.0,12.0,64,0.00,,,-99.99,25.000000,,2013-01-15 16:02:00,
2013-01-15 09:12:00,-5.0,-14.0,-100.00,NE,56,8.0,12.0,64,0.00,,,-99.99,25.000000,,2013-01-15 16:12:00,
2013-01-15 09:22:00,-5.0,-14.0,-100.00,NE,56,8.0,12.0,64,0.00,,,-99.99,25.000000,,2013-01-15 16:22:00,
2013-01-15 09:32:00,-5.0,-14.0,-100.00,NE,56,8.0,12.0,64,0.00,,,-99.99,25.000000,,2013-01-15 16:32:00,
2013-01-15 09:53:00,-2.0,-13.0,-100.00,ENE,70,9.0,12.0,57,0.00,,,0.00,109.000000,,2013-01-15 16:53:00,
2013-01-15 10:03:00,-2.0,-13.0,-100.00,ENE,70,9.0,12.0,57,0.00,,,0.00,109.000000,,2013-01-15 17:03:00,
2013-01-15 10:12:00,-2.0,-13.0,-100.00,ENE,70,9.0,12.0,57,0.00,,,0.00,109.000000,,2013-01-15 17:12:00,
2013-01-15 10:22:00,-2.0,-13.0,-100.00,ENE,70,9.0,12.0,57,0.00,,,0.00,109.000000,,2013-01-15 17:22:00,
2013-01-15 10:33:00,-2.0,-13.0,-100.00,ENE,70,9.0,12.0,57,0.00,,,0.00,109.000000,,2013-01-15 17:33:00,
2013-01-15 10:53:00,1.0,-12.0,-100.00,ENE,57,12.0,16.0,52,0.00,,,0.00,241.000000,,2013-01-15 17:53:00,
2013-01-15 11:03:00,1.0,-12.0,-100.00,ENE,57,12.0,16.0,52,0.00,,,0.00,241.000000,,2013-01-15 18:03:00,
2013-01-15 11:12:00,1.0,-12.0,-100.00,ENE,57,12.0,16.0,52,0.00,,,0.00,241.000000,,2013-01-15 18:12:00,
2013-01-15 11:22:00,1.0,-12.0,-100.00,ENE,57,12.0,16.0,52,0.00,,,0.00,241.000000,,2013-01-15 18:22:00,
2013-01-15 11:33:00,1.0,-12.0,-100.00,ENE,57,12.0,16.0,52,0.00,,,0.00,241.000000,,2013-01-15 18:33:00,
2013-01-15 11:53:00,4.0,-12.0,-100.00,NE,56,11.0,17.0,47,0.00,,,0.00,513.000000,,2013-01-15 18:53:00,
2013-01-15 12:03:00,4.0,-12.0,-100.00,NE,56,11.0,17.0,47,0.00,,,0.00,513.000000,,2013-01-15 19:03:00,
2013-01-15 12:53:00,7.0,-11.0,-100.00,ENE,63,10.0,14.0,43,0.00,,,0.00,499.000000,,2013-01-15 19:53:00,
2013-01-15 13:03:00,7.0,-11.0,-100.00,ENE,63,10.0,14.0,43,0.00,,,0.00,499.000000,,2013-01-15 20:03:00,
2013-01-15 13:12:00,7.0,-11.0,-100.00,ENE,63,10.0,14.0,43,0.00,,,0.00,499.000000,,2013-01-15 20:12:00,
2013-01-15 13:22:00,7.0,-11.0,-100.00,ENE,63,10.0,14.0,43,0.00,,,0.00,499.000000,,2013-01-15 20:22:00,
2013-01-15 13:33:00,7.0,-11.0,-100.00,ENE,63,10.0,14.0,43,0.00,,,0.00,499.000000,,2013-01-15 20:33:00,
2013-01-15 13:53:00,8.0,-9.0,-100.00,NE,50,9.0,14.0,44,0.00,,,0.00,517.000000,,2013-01-15 20:53:00,
2013-01-15 14:03:00,8.0,-9.0,-100.00,NE,50,9.0,14.0,44,0.00,,,0.00,517.000000,,2013-01-15 21:03:00,
2013-01-15 14:53:00,10.0,-8.0,-100.00,NE,52,7.0,12.0,42,-99.99,,,0.00,411.000000,,2013-01-15 21:53:00,
2013-01-15 15:02:00,10.0,-8.0,-100.00,NE,52,7.0,12.0,42,-99.99,,,0.00,411.000000,,2013-01-15 22:02:00,
2013-01-15 15:12:00,10.0,-8.0,-100.00,NE,52,7.0,12.0,42,-99.99,,,0.00,411.000000,,2013-01-15 22:12:00,
2013-01-15 15:22:00,10.0,-8.0,-100.00,NE,52,7.0,12.0,42,-99.99,,,0.00,411.000000,,2013-01-15 22:22:00,
2013-01-15 15:32:00,10.0,-8.0,-100.00,NE,52,7.0,12.0,42,-99.99,,,0.00,411.000000,,2013-01-15 22:32:00,
2013-01-15 15:53:00,14.0,-6.0,-100.00,SE,127,2.0,7.0,39,-99.99,,,0.00,337.000000,,2013-01-15 22:53:00,
2013-01-15 16:02:00,14.0,-6.0,-100.00,SE,127,2.0,7.0,39,-99.99,,,0.00,337.000000,,2013-01-15 23:02:00,
2013-01-15 16:12:00,14.0,-6.0,-100.00,SE,127,2.0,7.0,39,-99.99,,,0.00,337.000000,,2013-01-15 23:12:00,
2013-01-15 16:22:00,14.0,-6.0,-100.00,SE,127,2.0,7.0,39,-99.99,,,0.00,337.000000,,2013-01-15 23:22:00,
2013-01-15 16:32:00,14.0,-6.0,-100.00,SE,127,2.0,7.0,39,-99.99,,,0.00,337.000000,,2013-01-15 23:32:00,
2013-01-15 16:53:00,14.0,-6.0,-100.00,NE,54,1.0,6.0,40,0.00,,,0.00,151.000000,,2013-01-15 23:53:00,
2013-01-15 17:02:00,14.0,-6.0,-100.00,NE,54,1.0,6.0,40,0.00,,,0.00,151.000000,,2013-01-16 00:02:00,
2013-01-15 17:12:00,14.0,-6.0,-100.00,NE,54,1.0,6.0,40,0.00,,,0.00,151.000000,,2013-01-16 00:12:00,
2013-01-15 17:22:00,14.0,-6.0,-100.00,NE,54,1.0,6.0,40,0.00,,,0.00,151.000000,,2013-01-16 00:22:00,
2013-01-15 17:32:00,14.0,-6.0,-100.00,NE,54,1.0,6.0,40,0.00,,,0.00,151.000000,,2013-01-16 00:32:00,
2013-01-15 17:53:00,9.0,-7.0,-100.00,SW,231,2.0,4.0,47,0.00,,,0.00,26.000000,,2013-01-16 00:53:00,
2013-01-15 18:02:00,9.0,-7.0,-100.00,SW,231,2.0,4.0,47,0.00,,,0.00,26.000000,,2013-01-16 01:02:00,
2013-01-15 18:12:00,9.0,-7.0,-100.00,SW,231,2.0,4.0,47,0.00,,,0.00,26.000000,,2013-01-16 01:12:00,
2013-01-15 18:22:00,9.0,-7.0,-100.00,SW,231,2.0,4.0,47,0.00,,,0.00,26.000000,,2013-01-16 01:22:00,
2013-01-15 18:32:00,9.0,-7.0,-100.00,SW,231,2.0,4.0,47,0.00,,,0.00,26.000000,,2013-01-16 01:32:00,
2013-01-15 18:53:00,9.0,-5.0,-100.00,NE,54,2.0,6.0,52,0.00,,,0.00,0.000000,,2013-01-16 01:53:00,
2013-01-15 19:02:00,9.0,-5.0,-100.00,NE,54,2.0,6.0,52,0.00,,,0.00,0.000000,,2013-01-16 02:02:00,
2013-01-15 19:12:00,9.0,-5.0,-100.00,NE,54,2.0,6.0,52,0.00,,,0.00,0.000000,,2013-01-16 02:12:00,
2013-01-15 19:22:00,9.0,-5.0,-100.00,NE,54,2.0,6.0,52,0.00,,,0.00,0.000000,,2013-01-16 02:22:00,
2013-01-15 19:32:00,9.0,-5.0,-100.00,NE,54,2.0,6.0,52,0.00,,,0.00,0.000000,,2013-01-16 02:32:00,
2013-01-15 19:53:00,10.0,-5.0,-100.00,NE,49,7.0,8.0,49,0.00,,,0.00,0.000000,,2013-01-16 02:53:00,
2013-01-15 20:02:00,10.0,-5.0,-100.00,NE,49,7.0,8.0,49,0.00,,,0.00,0.000000,,2013-01-16 03:02:00,
2013-01-15 20:11:00,10.0,-5.0,-100.00,NE,49,7.0,8.0,49,0.00,,,0.00,0.000000,,2013-01-16 03:11:00,
2013-01-15 20:22:00,10.0,-5.0,-100.00,NE,49,7.0,8.0,49,0.00,,,0.00,0.000000,,2013-01-16 03:22:00,
2013-01-15 20:32:00,10.0,-5.0,-100.00,NE,49,7.0,8.0,49,0.00,,,0.00,0.000000,,2013-01-16 03:32:00,
2013-01-15 20:53:00,10.0,-4.0,-100.00,NE,56,6.0,8.0,52,0.00,,,0.00,0.000000,,2013-01-16 03:53:00,
2013-01-15 21:02:00,10.0,-4.0,-100.00,NE,56,6.0,8.0,52,0.00,,,0.00,0.000000,,2013-01-16 04:02:00,
2013-01-15 21:12:00,10.0,-4.0,-100.00,NE,56,6.0,8.0,52,0.00,,,0.00,0.000000,,2013-01-16 04:12:00,
2013-01-15 21:22:00,10.0,-4.0,-100.00,NE,56,6.0,8.0,52,0.00,,,0.00,0.000000,,2013-01-16 04:22:00,
2013-01-15 21:32:00,10.0,-4.0,-100.00,NE,56,6.0,8.0,52,0.00,,,0.00,0.000000,,2013-01-16 04:32:00,
2013-01-15 21:52:00,8.0,-5.0,-100.00,NNE,22,2.0,6.0,54,0.00,,,0.00,0.000000,,2013-01-16 04:52:00,
2013-01-15 22:03:00,8.0,-5.0,-100.00,NNE,22,2.0,6.0,54,0.00,,,0.00,0.000000,,2013-01-16 05:03:00,
2013-01-15 22:32:00,8.0,-5.0,-100.00,NNE,22,2.0,6.0,54,0.00,,,0.00,0.000000,,2013-01-16 05:32:00,
2013-01-15 22:53:00,9.0,-5.0,-100.00,ENE,64,5.0,6.0,52,0.00,,,0.00,0.000000,,2013-01-16 05:53:00,
2013-01-15 23:02:00,9.0,-5.0,-100.00,ENE,64,5.0,6.0,52,0.00,,,0.00,0.000000,,2013-01-16 06:02:00,
2013-01-15 23:12:00,9.0,-5.0,-100.00,ENE,64,5.0,6.0,52,0.00,,,0.00,0.000000,,2013-01-16 06:12:00,
2013-01-15 23:22:00,9.0,-5.0,-100.00,ENE,64,5.0,6.0,52,0.00,,,0.00,0.000000,,2013-01-16 06:22:00,
2013-01-15 23:32:00,9.0,-5.0,-100.00,ENE,64,5.0,6.0,52,0.00,,,0.00,0.000000,,2013-01-16 06:32:00,
2013-01-15 23:53:00,8.0,-6.0,-100.00,ENE,57,6.0,7.0,51,0.00,,,0.00,0.000000,,2013-01-16 06:53:00,